createdAt,value
2019-05-15T00:02:15.048Z,12.50
2019-05-15T00:04:45.366Z,12.40
2019-05-15T00:07:18.195Z,12.40
2019-05-15T00:09:49.140Z,12.40
2019-05-15T00:12:19.635Z,12.40
2019-05-15T00:14:49.968Z,12.40
2019-05-15T00:17:20.292Z,12.40
2019-05-15T00:19:50.587Z,12.40
2019-05-15T00:22:20.906Z,12.40
2019-05-15T00:24:51.278Z,12.40
2019-05-15T00:27:21.609Z,12.40
2019-05-15T00:29:51.902Z,12.40
2019-05-15T00:32:22.187Z,12.40
2019-05-15T00:34:52.587Z,12.40
2019-05-15T00:37:22.900Z,12.40
2019-05-15T00:39:53.233Z,12.40
2019-05-15T00:42:23.525Z,12.40
2019-05-15T00:44:53.830Z,12.40
2019-05-15T00:47:24.126Z,12.40
2019-05-15T00:49:54.431Z,12.40
2019-05-15T00:52:24.823Z,12.40
2019-05-15T00:54:55.216Z,12.40
2019-05-15T00:57:25.511Z,12.40
2019-05-15T00:59:55.836Z,12.40
2019-05-15T01:02:28.521Z,12.40
2019-05-15T01:04:58.516Z,12.40
2019-05-15T01:07:28.924Z,12.40
2019-05-15T01:09:59.504Z,12.40
2019-05-15T01:12:29.855Z,12.40
2019-05-15T01:15:00.163Z,12.40
2019-05-15T01:17:30.461Z,12.40
2019-05-15T01:20:00.786Z,12.40
2019-05-15T01:22:31.131Z,12.40
2019-05-15T01:25:01.434Z,12.30
2019-05-15T01:27:31.720Z,12.30
2019-05-15T01:30:02.000Z,12.30
2019-05-15T01:32:32.673Z,12.30
2019-05-15T01:35:03.089Z,12.30
2019-05-15T01:37:33.382Z,12.30
2019-05-15T01:40:04.412Z,12.30
2019-05-15T01:42:34.737Z,12.30
2019-05-15T01:45:05.741Z,12.30
2019-05-15T01:47:36.018Z,12.30
2019-05-15T01:50:09.454Z,12.30
2019-05-15T01:52:39.876Z,12.30
2019-05-15T01:55:10.680Z,12.30
2019-05-15T01:57:41.094Z,12.30
2019-05-15T02:00:11.721Z,12.30
2019-05-15T02:02:42.011Z,12.30
2019-05-15T02:05:13.327Z,12.30
2019-05-15T02:07:43.624Z,12.20
2019-05-15T02:10:14.048Z,12.20
2019-05-15T02:12:44.404Z,12.20
2019-05-15T02:15:15.035Z,12.20
2019-05-15T02:17:45.345Z,12.20
2019-05-15T02:20:15.868Z,12.20
2019-05-15T02:22:48.362Z,12.20
2019-05-15T02:25:18.569Z,12.20
2019-05-15T02:27:48.880Z,12.20
2019-05-15T02:30:28.245Z,12.20
2019-05-15T02:32:54.551Z,12.20
2019-05-15T02:35:23.516Z,12.20
2019-05-15T02:37:53.815Z,12.20
2019-05-15T02:40:24.117Z,12.20
2019-05-15T02:42:54.412Z,12.20
2019-05-15T02:45:24.745Z,12.20
2019-05-15T02:47:55.021Z,12.20
2019-05-15T02:50:25.725Z,12.20
2019-05-15T02:53:00.258Z,12.10
2019-05-15T02:55:29.618Z,12.20
2019-05-15T02:58:00.114Z,12.20
2019-05-15T03:00:42.436Z,12.10
2019-05-15T03:03:02.493Z,12.10
2019-05-15T03:05:32.810Z,12.10
2019-05-15T03:08:03.472Z,12.10
2019-05-15T03:10:33.765Z,12.10
2019-05-15T03:13:04.027Z,12.10
2019-05-15T03:15:34.387Z,12.10
2019-05-15T03:18:04.751Z,12.10
2019-05-15T03:20:34.995Z,12.10
2019-05-15T03:23:05.283Z,12.10
2019-05-15T03:25:35.602Z,12.10
2019-05-15T03:28:05.886Z,12.10
2019-05-15T03:31:06.722Z,12.10
2019-05-15T03:33:17.316Z,12.10
2019-05-15T03:35:43.015Z,12.00
2019-05-15T03:38:12.169Z,12.00
2019-05-15T03:40:42.470Z,12.00
2019-05-15T03:43:12.779Z,12.00
2019-05-15T03:45:43.080Z,12.00
2019-05-15T03:48:13.438Z,12.00
2019-05-15T03:50:43.833Z,12.00
2019-05-15T03:53:14.108Z,12.00
2019-05-15T03:55:44.439Z,12.00
2019-05-15T03:58:14.758Z,12.00
2019-05-15T04:00:45.078Z,12.00
2019-05-15T04:03:15.406Z,12.00
2019-05-15T04:05:49.202Z,11.90
2019-05-15T04:08:19.502Z,11.90
2019-05-15T04:10:49.984Z,11.90
2019-05-15T04:13:20.258Z,11.90
2019-05-15T04:15:50.655Z,11.90
2019-05-15T04:18:20.919Z,11.90
2019-05-15T04:20:51.216Z,11.90
2019-05-15T04:23:24.263Z,11.90
2019-05-15T04:25:54.997Z,11.90
2019-05-15T04:28:29.321Z,11.90
2019-05-15T04:30:59.798Z,11.90
2019-05-15T04:33:30.171Z,11.90
2019-05-15T04:36:00.454Z,11.90
2019-05-15T04:38:30.731Z,11.80
2019-05-15T04:41:01.025Z,11.90
2019-05-15T04:43:39.620Z,11.90
2019-05-15T04:46:03.422Z,11.90
2019-05-15T04:48:33.748Z,11.80
2019-05-15T04:51:04.064Z,11.90
2019-05-15T04:53:34.385Z,11.90
2019-05-15T04:56:04.698Z,11.80
2019-05-15T04:58:35.071Z,11.90
2019-05-15T05:01:09.118Z,11.90
2019-05-15T05:03:39.410Z,11.90
2019-05-15T05:06:10.428Z,11.90
2019-05-15T05:08:41.082Z,11.90
2019-05-15T05:11:11.427Z,11.90
2019-05-15T05:13:41.783Z,11.90
2019-05-15T05:16:13.057Z,11.90
2019-05-15T05:18:43.542Z,11.90
2019-05-15T05:21:13.864Z,11.90
2019-05-15T05:23:44.249Z,11.90
2019-05-15T05:26:14.524Z,11.90
2019-05-15T05:28:48.613Z,11.90
2019-05-15T05:31:19.063Z,11.90
2019-05-15T05:33:49.623Z,11.90
2019-05-15T05:36:20.000Z,11.90
2019-05-15T05:38:50.293Z,11.90
2019-05-15T05:41:20.575Z,11.90
2019-05-15T05:43:50.857Z,12.00
2019-05-15T05:46:21.161Z,12.00
2019-05-15T05:48:51.424Z,12.00
2019-05-15T05:51:21.779Z,12.00
2019-05-15T05:53:52.083Z,12.00
2019-05-15T05:56:22.379Z,12.00
2019-05-15T05:58:52.691Z,12.00
2019-05-15T06:01:22.978Z,12.00
2019-05-15T06:03:53.299Z,12.10
2019-05-15T06:06:23.591Z,12.10
2019-05-15T06:08:53.936Z,12.10
2019-05-15T06:11:24.213Z,12.10
2019-05-15T06:13:54.531Z,12.10
2019-05-15T06:16:24.822Z,12.10
2019-05-15T06:18:58.618Z,12.10
2019-05-15T06:21:28.789Z,12.20
2019-05-15T06:24:04.565Z,12.20
2019-05-15T06:26:31.099Z,12.20
2019-05-15T06:29:01.413Z,12.30
2019-05-15T06:31:31.750Z,12.30
2019-05-15T06:34:02.058Z,12.30
2019-05-15T06:36:32.367Z,12.40
2019-05-15T06:39:04.161Z,12.40
2019-05-15T06:41:34.461Z,12.50
2019-05-15T06:44:07.861Z,12.50
2019-05-15T06:46:39.270Z,12.50
2019-05-15T06:49:09.750Z,12.60
2019-05-15T06:51:40.085Z,12.60
2019-05-15T06:54:10.400Z,12.60
2019-05-15T06:56:40.699Z,12.70
2019-05-15T06:59:11.021Z,12.70
2019-05-15T07:01:41.380Z,12.70
2019-05-15T07:04:11.711Z,12.70
2019-05-15T07:06:41.982Z,12.70
2019-05-15T07:09:12.615Z,12.70
2019-05-15T07:11:42.969Z,12.80
2019-05-15T07:14:13.269Z,12.80
2019-05-15T07:16:43.544Z,12.80
2019-05-15T07:19:13.915Z,12.80
2019-05-15T07:21:44.203Z,12.80
2019-05-15T07:24:14.594Z,12.80
2019-05-15T07:26:44.873Z,12.80
2019-05-15T07:29:15.152Z,12.80
2019-05-15T07:31:47.721Z,12.80
2019-05-15T07:34:18.814Z,12.90
2019-05-15T07:36:49.484Z,12.90
2019-05-15T07:39:19.798Z,12.90
2019-05-15T07:41:50.103Z,12.90
2019-05-15T07:44:20.419Z,12.90
2019-05-15T07:46:50.779Z,12.90
2019-05-15T07:49:21.095Z,13.00
2019-05-15T07:51:51.387Z,13.00
2019-05-15T07:54:21.718Z,13.00
2019-05-15T07:56:52.029Z,13.00
2019-05-15T07:59:22.354Z,13.00
2019-05-15T08:01:52.639Z,13.10
2019-05-15T08:04:29.065Z,13.10
2019-05-15T08:06:54.918Z,13.10
2019-05-15T08:09:25.372Z,13.10
2019-05-15T08:11:55.813Z,13.10
2019-05-15T08:14:26.136Z,13.20
2019-05-15T08:16:58.929Z,13.20
2019-05-15T08:19:28.987Z,13.20
2019-05-15T08:21:59.358Z,13.30
2019-05-15T08:24:30.062Z,13.30
2019-05-15T08:27:00.314Z,13.30
2019-05-15T08:29:30.642Z,13.30
2019-05-15T08:32:00.972Z,13.40
2019-05-15T08:34:31.285Z,13.40
2019-05-15T08:37:01.621Z,13.40
2019-05-15T08:39:31.914Z,13.40
2019-05-15T08:42:02.293Z,13.40
2019-05-15T08:44:32.582Z,13.50
2019-05-15T08:47:02.989Z,13.50
2019-05-15T08:49:33.325Z,13.50
2019-05-15T08:52:07.054Z,13.50
2019-05-15T08:54:38.159Z,13.50
2019-05-15T08:57:08.458Z,13.60
2019-05-15T08:59:38.923Z,13.60
2019-05-15T09:02:09.331Z,13.60
2019-05-15T09:04:39.690Z,13.60
2019-05-15T09:07:10.011Z,13.60
2019-05-15T09:09:40.422Z,13.60
2019-05-15T09:12:10.735Z,13.70
2019-05-15T09:14:41.094Z,13.70
2019-05-15T09:17:11.422Z,13.70
2019-05-15T09:19:41.709Z,13.70
2019-05-15T09:22:12.008Z,13.70
2019-05-15T09:24:42.285Z,13.70
2019-05-15T09:27:12.575Z,13.80
2019-05-15T09:29:42.848Z,13.80
2019-05-15T09:32:13.169Z,13.80
2019-05-15T09:34:50.930Z,13.80
2019-05-15T09:37:17.907Z,13.80
2019-05-15T09:39:48.994Z,13.90
2019-05-15T09:42:19.799Z,13.90
2019-05-15T09:44:50.067Z,13.90
2019-05-15T09:47:20.435Z,14.00
2019-05-15T09:49:50.723Z,14.00
2019-05-15T09:52:23.075Z,14.00
2019-05-15T09:54:53.102Z,14.10
2019-05-15T09:57:23.413Z,14.10
2019-05-15T09:59:53.766Z,14.20
2019-05-15T10:02:24.101Z,14.20
2019-05-15T10:05:06.203Z,14.30
2019-05-15T10:07:28.550Z,14.30
2019-05-15T10:09:58.484Z,14.30
2019-05-15T10:12:34.548Z,14.40
2019-05-15T10:15:00.973Z,14.50
2019-05-15T10:17:32.292Z,14.50
2019-05-15T10:20:02.661Z,14.50
2019-05-15T10:22:32.934Z,14.60
2019-05-15T10:25:04.195Z,14.60
2019-05-15T10:27:34.520Z,14.60
2019-05-15T10:30:09.260Z,14.60
2019-05-15T10:32:39.987Z,14.60
2019-05-15T10:35:24.653Z,14.60
2019-05-15T10:37:43.927Z,14.60
2019-05-15T10:40:14.486Z,14.60
2019-05-15T10:42:44.808Z,14.60
2019-05-15T10:45:15.448Z,14.60
2019-05-15T10:47:45.751Z,14.60
2019-05-15T10:50:18.981Z,14.60
2019-05-15T10:52:49.040Z,14.60
2019-05-15T10:55:19.983Z,14.70
2019-05-15T10:57:50.609Z,14.70
2019-05-15T11:00:21.444Z,14.70
2019-05-15T11:02:51.796Z,14.70
2019-05-15T11:05:30.775Z,14.70
2019-05-15T11:07:54.245Z,14.70
2019-05-15T11:10:24.892Z,14.70
2019-05-15T11:12:55.203Z,14.70
2019-05-15T11:15:25.663Z,14.80
2019-05-15T11:17:58.295Z,14.80
2019-05-15T11:20:28.018Z,14.80
2019-05-15T11:22:59.074Z,14.80
2019-05-15T11:25:30.568Z,14.80
2019-05-15T11:28:00.887Z,14.80
2019-05-15T11:30:31.241Z,14.80
2019-05-15T11:33:01.601Z,14.90
2019-05-15T11:35:31.882Z,14.90
2019-05-15T11:38:02.272Z,14.90
2019-05-15T11:40:32.559Z,14.90
2019-05-15T11:43:03.069Z,14.90
2019-05-15T11:45:33.392Z,14.90
2019-05-15T11:48:04.057Z,14.90
2019-05-15T11:50:34.344Z,14.90
2019-05-15T11:53:04.650Z,15.00
2019-05-15T11:55:34.990Z,15.00
2019-05-15T11:58:05.403Z,15.00
2019-05-15T12:00:38.149Z,15.00
2019-05-15T12:03:08.951Z,15.00
2019-05-15T12:05:39.431Z,15.00
2019-05-15T12:08:12.475Z,15.10
2019-05-15T12:10:41.749Z,15.10
2019-05-15T12:13:12.343Z,15.10
2019-05-15T12:15:42.667Z,15.10
2019-05-15T12:18:12.994Z,15.10
2019-05-15T12:20:43.276Z,15.10
2019-05-15T12:23:13.581Z,15.10
2019-05-15T12:25:43.898Z,15.10
2019-05-15T12:28:14.218Z,15.10
2019-05-15T12:30:44.489Z,15.10
2019-05-15T12:33:14.802Z,15.10
2019-05-15T12:35:45.111Z,15.10
2019-05-15T12:38:18.080Z,15.10
2019-05-15T13:01:16.493Z,15.10
2019-05-15T13:03:38.305Z,15.10
2019-05-15T13:06:08.672Z,15.10
2019-05-15T13:08:38.977Z,15.10
2019-05-15T13:11:14.685Z,15.10
2019-05-15T13:13:41.452Z,15.00
2019-05-15T13:16:11.764Z,15.00
2019-05-15T13:18:42.025Z,15.00
2019-05-15T13:21:12.351Z,15.00
2019-05-15T13:23:42.653Z,15.00
2019-05-15T13:26:23.390Z,15.00
2019-05-15T13:28:44.963Z,15.00
2019-05-15T13:31:15.252Z,15.00
2019-05-15T13:33:47.987Z,15.00
2019-05-15T13:36:19.921Z,15.00
2019-05-15T13:38:49.539Z,15.00
2019-05-15T13:41:19.836Z,15.00
2019-05-15T13:43:50.157Z,15.00
2019-05-15T13:46:20.916Z,15.00
2019-05-15T13:48:51.208Z,15.00
2019-05-15T13:51:21.498Z,15.00
2019-05-15T13:53:53.631Z,15.00
2019-05-15T13:56:24.823Z,15.00
2019-05-15T13:58:55.150Z,15.00
2019-05-15T14:01:25.461Z,15.00
2019-05-15T14:03:55.693Z,15.00
2019-05-15T14:06:28.438Z,15.00
2019-05-15T14:08:58.253Z,15.00
2019-05-15T14:11:31.008Z,15.00
2019-05-15T14:14:00.407Z,15.00
2019-05-15T14:16:30.734Z,15.00
2019-05-15T14:19:00.999Z,15.00
2019-05-15T14:21:31.333Z,15.00
2019-05-15T14:24:01.850Z,14.90
2019-05-15T14:26:32.441Z,14.90
2019-05-15T14:29:05.615Z,14.90
2019-05-15T14:31:36.544Z,14.90
2019-05-15T14:34:08.642Z,14.90
2019-05-15T14:36:38.577Z,14.90
2019-05-15T14:39:09.127Z,14.90
2019-05-15T14:41:39.383Z,14.90
2019-05-15T14:44:17.428Z,14.90
2019-05-15T14:46:41.599Z,14.90
2019-05-15T14:49:11.858Z,14.90
2019-05-15T14:51:42.123Z,14.90
2019-05-15T14:54:12.369Z,14.90
2019-05-15T14:56:42.909Z,14.90
2019-05-15T14:59:13.167Z,14.90
2019-05-15T15:01:59.470Z,14.90
2019-05-15T15:04:29.721Z,14.90
2019-05-15T15:06:59.978Z,14.90
2019-05-15T15:09:30.227Z,14.90
2019-05-15T15:12:00.517Z,14.90
2019-05-15T15:14:30.800Z,14.90
2019-05-15T15:17:01.115Z,14.80
2019-05-15T15:19:32.139Z,14.80
2019-05-15T15:22:02.402Z,14.80
2019-05-15T15:24:32.938Z,14.80
2019-05-15T15:27:03.208Z,14.80
2019-05-15T15:29:33.642Z,14.70
2019-05-15T15:32:03.917Z,14.70
2019-05-15T15:34:34.158Z,14.70
2019-05-15T15:37:04.432Z,14.70
2019-05-15T15:39:34.677Z,14.70
2019-05-15T15:42:05.325Z,14.70
2019-05-15T15:44:37.895Z,14.70
2019-05-15T15:47:08.610Z,14.70
2019-05-15T15:49:39.045Z,14.60
2019-05-15T15:52:09.319Z,14.60
2019-05-15T15:54:40.543Z,14.60
2019-05-15T15:57:11.074Z,14.60
2019-05-15T15:59:41.347Z,14.60
2019-05-15T16:02:11.616Z,14.60
2019-05-15T16:04:41.863Z,14.60
2019-05-15T16:07:12.130Z,14.50
2019-05-15T16:09:42.396Z,14.50
2019-05-15T16:12:12.935Z,14.50
2019-05-15T16:14:43.215Z,14.50
2019-05-15T16:17:13.484Z,14.50
2019-05-15T16:19:43.806Z,14.50
2019-05-15T16:22:14.073Z,14.50
2019-05-15T16:24:44.321Z,14.40
2019-05-15T16:27:14.583Z,14.40
2019-05-15T16:29:44.841Z,14.40
2019-05-15T16:32:18.543Z,14.40
2019-05-15T16:34:47.920Z,14.40
2019-05-15T16:37:18.849Z,14.40
2019-05-15T16:39:49.366Z,14.40
2019-05-15T16:42:19.635Z,14.40
2019-05-15T16:44:49.883Z,14.40
2019-05-15T16:47:20.149Z,14.40
2019-05-15T16:49:50.755Z,14.40
2019-05-15T16:52:21.020Z,14.40
2019-05-15T16:54:51.297Z,14.40
2019-05-15T16:57:21.524Z,14.30
2019-05-15T16:59:51.770Z,14.30
2019-05-15T17:02:22.030Z,14.30
2019-05-15T17:04:52.281Z,14.30
2019-05-15T17:07:22.541Z,14.30
2019-05-15T17:09:52.787Z,14.30
2019-05-15T17:12:23.056Z,14.30
2019-05-15T17:14:53.318Z,14.30
2019-05-15T17:17:23.857Z,14.30
2019-05-15T17:19:54.105Z,14.30
2019-05-15T17:22:24.651Z,14.30
2019-05-15T17:24:58.171Z,14.30
2019-05-15T17:27:28.875Z,14.20
2019-05-15T17:30:00.904Z,14.20
2019-05-15T17:32:31.187Z,14.20
2019-05-15T17:35:01.455Z,14.20
2019-05-15T17:37:31.870Z,14.20
2019-05-15T17:40:02.141Z,14.20
2019-05-15T17:42:32.707Z,14.10
2019-05-15T17:45:02.977Z,14.10
2019-05-15T17:47:33.238Z,14.10
2019-05-15T17:50:03.728Z,14.10
2019-05-15T17:52:33.983Z,14.10
2019-05-15T17:55:05.997Z,14.10
2019-05-15T17:57:38.707Z,14.10
2019-05-15T18:00:28.597Z,14.10
2019-05-15T18:02:59.054Z,14.10
2019-05-15T18:05:29.311Z,14.10
2019-05-15T18:07:59.570Z,14.10
2019-05-15T18:10:29.818Z,14.10
2019-05-15T18:13:00.159Z,14.10
2019-05-15T18:15:30.451Z,14.00
2019-05-15T18:18:00.737Z,14.00
2019-05-15T18:20:31.065Z,14.00
2019-05-15T18:23:01.331Z,14.00
2019-05-15T18:25:31.592Z,14.00
2019-05-15T18:28:01.841Z,14.00
2019-05-15T18:30:32.107Z,14.00
2019-05-15T18:33:02.355Z,14.00
2019-05-15T18:35:33.031Z,14.00
2019-05-15T18:38:03.247Z,14.00
2019-05-15T18:40:33.510Z,13.90
2019-05-15T18:43:04.062Z,14.00
2019-05-15T18:45:34.692Z,13.90
2019-05-15T18:48:05.011Z,13.90
2019-05-15T18:50:37.650Z,13.90
2019-05-15T18:53:08.941Z,13.90
2019-05-15T18:55:39.431Z,13.90
2019-05-15T18:58:09.682Z,13.90
2019-05-15T19:00:40.217Z,13.90
2019-05-15T19:03:19.313Z,13.90
2019-05-15T19:05:42.426Z,13.80
2019-05-15T19:08:12.845Z,13.80
2019-05-15T19:10:43.106Z,13.80
2019-05-15T19:13:13.362Z,13.80
2019-05-15T19:15:44.145Z,13.80
2019-05-15T19:18:14.402Z,13.80
2019-05-15T19:20:44.731Z,13.80
2019-05-15T19:23:14.983Z,13.70
2019-05-15T19:25:45.243Z,13.80
2019-05-15T19:28:15.496Z,13.80
2019-05-15T19:30:47.992Z,13.70
2019-05-15T19:33:26.491Z,13.70
2019-05-15T19:35:50.039Z,13.70
2019-05-15T19:38:20.287Z,13.70
2019-05-15T19:40:50.557Z,13.60
2019-05-15T19:43:20.804Z,13.70
2019-05-15T19:45:51.087Z,13.60
2019-05-15T19:48:21.346Z,13.60
2019-05-15T19:50:52.581Z,13.60
2019-05-15T19:53:22.961Z,13.60
2019-05-15T19:55:53.303Z,13.60
2019-05-15T19:58:23.624Z,13.60
2019-05-15T20:00:53.886Z,13.60
2019-05-15T20:03:24.146Z,13.60
2019-05-15T20:05:54.401Z,13.60
2019-05-15T20:08:24.654Z,13.60
2019-05-15T20:10:54.909Z,13.50
2019-05-15T20:13:25.165Z,13.50
2019-05-15T20:15:57.858Z,13.50
2019-05-15T20:18:27.872Z,13.50
2019-05-15T20:20:58.598Z,13.50
2019-05-15T20:23:28.995Z,13.50
2019-05-15T20:25:59.276Z,13.50
2019-05-15T20:28:29.536Z,13.50
2019-05-15T20:30:59.876Z,13.40
2019-05-15T20:33:30.305Z,13.40
2019-05-15T20:36:01.055Z,13.40
2019-05-15T20:38:31.310Z,13.40
2019-05-15T20:41:01.575Z,13.40
2019-05-15T20:43:32.897Z,13.40
2019-05-15T20:46:03.245Z,13.40
2019-05-15T20:48:33.495Z,13.30
2019-05-15T20:51:03.867Z,13.30
2019-05-15T20:53:34.090Z,13.30
2019-05-15T20:56:04.353Z,13.30
2019-05-15T20:58:34.675Z,13.30
2019-05-15T21:01:05.691Z,13.30
2019-05-15T21:03:35.944Z,13.30
2019-05-15T21:06:08.706Z,13.20
2019-05-15T21:08:38.175Z,13.20
2019-05-15T21:11:11.833Z,13.20
2019-05-15T21:13:40.462Z,13.20
2019-05-15T21:16:10.897Z,13.20
2019-05-15T21:18:41.540Z,13.20
2019-05-15T21:21:11.996Z,13.20
2019-05-15T21:23:42.265Z,13.20
2019-05-15T21:26:12.549Z,13.20
2019-05-15T21:28:43.148Z,13.20
2019-05-15T21:31:13.636Z,13.20
2019-05-15T21:33:43.893Z,13.20
2019-05-15T21:36:15.499Z,13.20
2019-05-15T21:38:47.911Z,13.20
2019-05-15T21:41:18.851Z,13.10
2019-05-15T21:43:50.569Z,13.10
2019-05-15T21:46:20.956Z,13.10
2019-05-15T21:48:51.210Z,13.10
2019-05-15T21:51:21.472Z,13.10
2019-05-15T21:53:51.725Z,13.10
2019-05-15T21:56:21.990Z,13.10
2019-05-15T21:58:52.245Z,13.10
2019-05-15T22:01:22.823Z,13.10
2019-05-15T22:03:54.285Z,13.10
2019-05-15T22:06:24.620Z,13.00
2019-05-15T22:08:54.870Z,13.10
2019-05-15T22:11:28.905Z,13.00
2019-05-15T22:13:58.729Z,13.00
2019-05-15T22:16:29.191Z,13.00
2019-05-15T22:18:59.446Z,13.00
2019-05-15T22:21:29.779Z,13.00
2019-05-15T22:24:00.373Z,13.00
2019-05-15T22:26:30.647Z,13.00
2019-05-15T22:29:00.961Z,13.00
2019-05-15T22:31:31.518Z,13.00
2019-05-15T22:34:01.770Z,13.00
2019-05-15T22:36:33.011Z,12.90
2019-05-15T22:39:04.650Z,12.90
2019-05-15T22:41:34.979Z,12.90
2019-05-15T22:44:05.512Z,12.90
2019-05-15T22:46:38.259Z,12.90
2019-05-15T22:49:08.596Z,12.90
2019-05-15T22:51:38.924Z,12.90
2019-05-15T22:54:09.171Z,12.90
2019-05-15T22:56:39.434Z,12.90
2019-05-15T22:59:09.684Z,12.90
2019-05-15T23:01:40.229Z,12.90
2019-05-15T23:04:10.480Z,12.80
2019-05-15T23:06:40.760Z,12.90
2019-05-15T23:09:11.019Z,12.80
2019-05-15T23:11:41.283Z,12.80
2019-05-15T23:14:11.544Z,12.80
2019-05-15T23:16:42.081Z,12.80
2019-05-15T23:19:12.350Z,12.80
2019-05-15T23:21:42.607Z,12.80
2019-05-15T23:24:12.886Z,12.80
2019-05-15T23:26:43.128Z,12.80
2019-05-15T23:29:14.464Z,12.80
2019-05-15T23:31:44.806Z,12.80
2019-05-15T23:34:15.076Z,12.80
2019-05-15T23:36:45.366Z,12.80
2019-05-15T23:39:15.622Z,12.80
2019-05-15T23:41:45.870Z,12.80
2019-05-15T23:44:18.244Z,12.80
2019-05-15T23:46:48.753Z,12.80
2019-05-15T23:49:19.871Z,12.70
2019-05-15T23:51:50.272Z,12.70
2019-05-15T23:54:20.542Z,12.70
2019-05-15T23:56:50.784Z,12.70
2019-05-15T23:59:21.054Z,12.70
